Time;durP1;ratioP1;P1;durP2;ratioP2;P2;SDS_P1;SDS_P2;PMS_P1;PMS_P2;Temp;Humidity;BMP_temperature;BMP_pressure;BME280_temperature;BME280_humidity;BME280_pressure;Samples;Min_cycle;Max_cycle;Signal;HPM_P1;HPM_P2
2022/11/24 00:01:06;;;;;;;18.03;16.57;;;7.30;99.90;;;;;;4998987;28;20448;-72
2022/11/24 00:03:33;;;;;;;19.83;17.43;;;7.30;99.90;;;;;;4999164;28;20466;-73
2022/11/24 05:19:17;;;;;;;18.33;16.93;;;6.90;99.90;;;;;;5997787;23;20454;-78
2022/11/24 05:21:44;;;;;;;17.77;16.40;;;6.80;99.90;;;;;;5008684;28;20776;-82
2022/11/24 05:24:11;;;;;;;17.60;16.17;;;6.80;99.90;;;;;;5008859;28;20477;-81
2022/11/24 05:26:38;;;;;;;18.70;16.93;;;6.80;99.90;;;;;;5009067;28;20449;-82
2022/11/24 05:29:04;;;;;;;17.73;16.67;;;6.80;99.90;;;;;;5012732;28;20438;-82
2022/11/24 05:31:31;;;;;;;17.93;16.43;;;6.80;99.90;;;;;;5012940;28;20460;-81
2022/11/24 05:33:58;;;;;;;18.97;17.87;;;6.80;99.90;;;;;;5012863;28;20453;-82
2022/11/24 05:39:10;;;;;;;18.13;17.03;;;6.80;99.90;;;;;;5012601;28;20500;-82
2022/11/24 05:41:37;;;;;;;18.73;17.30;;;6.80;99.90;;;;;;5012629;28;20848;-81
2022/11/24 05:44:04;;;;;;;17.70;16.20;;;6.80;99.90;;;;;;5012731;28;20460;-80
2022/11/24 05:46:31;;;;;;;19.33;18.00;;;6.80;99.90;;;;;;5012427;28;20442;-79
2022/11/24 05:48:57;;;;;;;17.33;16.23;;;6.90;99.90;;;;;;5012377;28;20449;-80
2022/11/24 05:51:25;;;;;;;16.40;15.10;;;6.90;99.90;;;;;;5012466;28;20446;-81
2022/11/24 05:53:52;;;;;;;17.93;16.47;;;7.00;99.90;;;;;;5012542;28;20449;-82
2022/11/24 05:56:19;;;;;;;17.33;16.17;;;7.00;99.90;;;;;;5013018;28;20781;-81
2022/11/24 05:58:46;;;;;;;19.13;18.03;;;7.10;99.90;;;;;;5012300;28;20481;-82
2022/11/24 06:01:12;;;;;;;17.87;16.47;;;7.10;99.90;;;;;;5012200;28;20441;-82
2022/11/24 06:03:39;;;;;;;17.17;16.10;;;7.10;99.90;;;;;;5012026;28;20458;-80
2022/11/24 06:06:06;;;;;;;16.20;15.10;;;7.20;99.90;;;;;;5012449;28;20457;-81
2022/11/24 06:08:35;;;;;;;17.07;16.17;;;7.20;99.90;;;;;;5012330;28;20456;-80
2022/11/24 06:11:15;;;;;;;18.00;16.80;;;7.20;99.90;;;;;;5012146;28;20959;-82
2022/11/24 06:13:42;;;;;;;17.10;15.90;;;7.20;99.90;;;;;;5012214;28;20955;-82
2022/11/24 06:16:09;;;;;;;19.53;17.60;;;7.20;99.90;;;;;;5012134;28;20963;-82
2022/11/24 06:18:36;;;;;;;18.30;16.73;;;7.20;99.90;;;;;;5011888;28;20995;-82
2022/11/24 06:21:03;;;;;;;19.60;17.53;;;7.20;99.90;;;;;;5012033;28;20485;-83
2022/11/24 06:23:30;;;;;;;16.93;15.83;;;7.30;99.90;;;;;;5011660;28;20970;-83
2022/11/24 06:25:59;;;;;;;18.07;16.40;;;7.40;99.90;;;;;;5012063;28;20963;-83
2022/11/24 06:28:26;;;;;;;18.40;16.60;;;7.40;99.90;;;;;;5011804;28;20545;-83
2022/11/24 06:30:53;;;;;;;16.53;15.33;;;7.40;99.90;;;;;;5011592;28;20450;-83
2022/11/24 06:33:20;;;;;;;17.63;16.20;;;7.50;99.90;;;;;;5011845;28;20446;-82
2022/11/24 06:35:47;;;;;;;18.30;16.90;;;7.50;99.90;;;;;;5011827;28;20446;-81
2022/11/24 06:38:14;;;;;;;16.40;15.30;;;7.50;99.90;;;;;;5010998;28;20492;-81
2022/11/24 06:40:41;;;;;;;16.10;15.23;;;7.50;99.90;;;;;;5011208;28;21019;-82
2022/11/24 06:43:09;;;;;;;16.10;14.90;;;7.60;99.90;;;;;;5011356;28;20450;-83
2022/11/24 06:45:36;;;;;;;15.60;14.17;;;7.60;99.90;;;;;;5011621;28;20473;-83
2022/11/24 06:48:03;;;;;;;16.30;14.97;;;7.70;99.90;;;;;;5011866;28;20464;-86
2022/11/24 06:50:30;;;;;;;15.23;14.13;;;7.80;99.90;;;;;;5011301;28;20453;-84
2022/11/24 06:52:56;;;;;;;16.67;15.50;;;7.80;99.90;;;;;;5011188;28;20461;-82
2022/11/24 06:55:23;;;;;;;16.60;15.63;;;7.90;99.90;;;;;;5011048;28;20454;-82
2022/11/24 06:57:50;;;;;;;18.63;16.73;;;7.90;99.90;;;;;;5011329;28;20450;-81
2022/11/24 07:00:19;;;;;;;15.60;14.40;;;8.00;99.90;;;;;;5011212;28;20809;-81
2022/11/24 07:02:46;;;;;;;17.47;16.10;;;8.00;99.90;;;;;;5010873;28;20454;-82
2022/11/24 07:05:12;;;;;;;19.17;15.30;;;8.00;99.90;;;;;;5010918;28;20930;-81
2022/11/24 07:07:39;;;;;;;17.67;16.50;;;8.10;99.90;;;;;;5010445;28;20450;-82
2022/11/24 07:10:07;;;;;;;18.53;16.77;;;8.10;99.90;;;;;;5011099;28;20465;-82
2022/11/24 07:12:34;;;;;;;20.23;18.33;;;8.10;99.90;;;;;;5010887;28;20473;-79
2022/11/24 07:15:01;;;;;;;25.27;22.73;;;8.20;99.90;;;;;;5010712;28;20454;-77
2022/11/24 07:17:29;;;;;;;23.73;21.63;;;8.10;99.90;;;;;;5010388;28;20460;-78
2022/11/24 07:19:56;;;;;;;19.03;17.70;;;8.10;99.90;;;;;;5010236;28;20485;-77
2022/11/24 07:22:23;;;;;;;22.60;19.00;;;8.00;99.90;;;;;;5010405;28;20461;-77
2022/11/24 07:24:50;;;;;;;21.53;19.83;;;8.00;99.90;;;;;;5010850;28;20450;-76
2022/11/24 07:27:16;;;;;;;23.53;21.83;;;8.10;99.90;;;;;;5010535;28;20901;-76
2022/11/24 07:29:43;;;;;;;23.90;21.70;;;8.10;99.90;;;;;;5010275;28;20477;-77
2022/11/24 07:32:10;;;;;;;23.33;21.53;;;8.10;99.90;;;;;;5018626;28;20444;-75
2022/11/24 07:34:38;;;;;;;26.80;24.80;;;8.00;99.90;;;;;;5029919;28;20464;-74
2022/11/24 07:37:05;;;;;;;33.37;30.60;;;8.00;99.90;;;;;;5030192;28;20448;-72
2022/11/24 07:39:32;;;;;;;32.67;30.10;;;8.00;99.90;;;;;;5029839;28;20489;-74
2022/11/24 07:41:59;;;;;;;33.23;31.23;;;8.00;99.90;;;;;;5029773;28;20455;-72
2022/11/24 07:44:26;;;;;;;36.33;33.83;;;8.10;99.90;;;;;;5029583;28;20441;-72
2022/11/24 07:46:53;;;;;;;36.07;33.50;;;8.10;99.90;;;;;;5029661;28;20949;-73
2022/11/24 07:49:19;;;;;;;37.20;34.03;;;8.20;99.90;;;;;;5030041;28;20834;-74
2022/11/24 07:51:47;;;;;;;37.47;34.57;;;8.20;99.90;;;;;;5029257;28;20460;-74
2022/11/24 07:54:14;;;;;;;34.70;32.37;;;8.20;99.90;;;;;;5029749;28;20449;-74
2022/11/24 07:56:41;;;;;;;35.87;33.30;;;8.30;99.90;;;;;;5029740;28;20456;-74
2022/11/24 07:59:08;;;;;;;37.87;35.27;;;8.30;99.90;;;;;;5029589;28;20487;-73
2022/11/24 08:01:34;;;;;;;36.17;34.23;;;8.40;99.90;;;;;;5029954;28;20464;-72
2022/11/24 08:04:01;;;;;;;36.93;33.60;;;8.50;99.90;;;;;;5029451;28;20951;-72
2022/11/24 08:06:59;;;;;;;35.87;33.10;;;8.50;99.90;;;;;;5029541;28;20850;-72
2022/11/24 08:09:26;;;;;;;37.37;34.97;;;8.50;99.90;;;;;;5019644;28;20790;-85
2022/11/24 08:11:53;;;;;;;34.33;32.43;;;8.50;99.90;;;;;;5029748;28;20445;-83
2022/11/24 08:14:19;;;;;;;35.97;33.67;;;8.50;99.90;;;;;;5030093;28;20459;-80
2022/11/24 08:16:46;;;;;;;38.40;35.53;;;8.50;99.90;;;;;;5029863;28;20472;-80
2022/11/24 08:19:13;;;;;;;38.47;35.87;;;8.60;99.90;;;;;;5029373;28;20527;-81
2022/11/24 08:21:40;;;;;;;35.13;32.70;;;8.60;99.90;;;;;;5029706;28;20511;-80
2022/11/24 08:24:08;;;;;;;39.63;37.17;;;8.50;99.90;;;;;;5029948;28;20445;-80
2022/11/24 08:26:35;;;;;;;37.83;34.10;;;8.50;99.90;;;;;;5030000;28;20821;-81
2022/11/24 08:29:02;;;;;;;37.20;34.70;;;8.40;99.90;;;;;;5014212;28;20921;-80
2022/11/24 08:31:31;;;;;;;38.07;35.20;;;8.40;99.90;;;;;;5009856;28;20449;-80
2022/11/24 08:33:59;;;;;;;39.77;36.83;;;8.50;99.90;;;;;;5009520;28;20529;-79
2022/11/24 08:36:25;;;;;;;39.20;36.50;;;8.50;99.90;;;;;;5009591;28;20932;-80
2022/11/24 08:38:55;;;;;;;39.00;36.27;;;8.50;99.90;;;;;;5009697;28;20488;-80
2022/11/24 08:41:24;;;;;;;35.73;33.33;;;8.60;99.90;;;;;;5009898;28;20457;-80
2022/11/24 08:43:51;;;;;;;36.87;34.50;;;8.70;99.90;;;;;;5009990;28;20449;-80
2022/11/24 08:46:19;;;;;;;38.97;36.00;;;8.60;99.90;;;;;;5009879;28;20442;-81
2022/11/24 08:48:48;;;;;;;41.67;38.43;;;8.60;99.90;;;;;;5009750;28;20446;-83
2022/11/24 08:51:17;;;;;;;39.70;37.00;;;8.50;99.90;;;;;;5009717;28;20461;-83
2022/11/24 08:53:44;;;;;;;39.13;36.27;;;8.50;99.90;;;;;;5010183;28;20454;-84
2022/11/24 08:56:15;;;;;;;39.03;35.70;;;8.50;99.90;;;;;;5009962;28;21048;-87
2022/11/24 08:58:44;;;;;;;39.80;37.03;;;8.60;99.90;;;;;;5010767;28;20521;-86
2022/11/24 09:01:15;;;;;;;36.23;33.17;;;8.60;99.90;;;;;;5010732;28;20523;-88
2022/11/24 09:03:55;;;;;;;;;;;;;;;;;;;;;
2022/11/24 09:07:55;;;;;;;32.47;30.67;;;8.60;99.90;;;;;;5005482;28;20449;-86
2022/11/24 09:16:55;;;;;;;27.20;25.77;;;8.70;99.90;;;;;;4968087;28;20448;-85
2022/11/24 09:29:32;;;;;;;24.70;22.57;;;9.10;99.90;;;;;;4735211;30;20498;-83
2022/11/24 09:31:59;;;;;;;23.77;21.70;;;9.30;99.90;;;;;;4867174;29;20453;-82
2022/11/24 09:34:25;;;;;;;20.43;18.97;;;9.40;99.90;;;;;;4972793;28;20682;-83
2022/11/24 09:36:52;;;;;;;18.47;17.37;;;9.40;99.90;;;;;;5011494;28;20433;-85
2022/11/24 09:39:19;;;;;;;18.03;17.13;;;9.50;99.90;;;;;;5011410;28;20485;-82
2022/11/24 09:42:03;;;;;;;18.07;16.50;;;9.80;99.90;;;;;;5011917;28;20452;-82
2022/11/24 09:45:09;;;;;;;17.00;15.90;;;9.90;99.90;;;;;;5011952;28;20452;-81
2022/11/24 09:47:48;;;;;;;15.00;14.30;;;10.00;99.90;;;;;;5011729;28;20457;-80
2022/11/24 09:50:18;;;;;;;14.53;13.60;;;10.00;99.90;;;;;;5011627;28;20803;-80
2022/11/24 09:52:50;;;;;;;13.90;13.30;;;10.00;99.90;;;;;;5010761;28;20445;-81
2022/11/24 09:55:27;;;;;;;14.70;14.00;;;10.00;99.90;;;;;;5011069;28;20448;-80
2022/11/24 09:58:03;;;;;;;13.13;12.63;;;10.20;99.90;;;;;;5011661;28;20452;-81
2022/11/24 10:00:30;;;;;;;12.23;11.57;;;10.10;99.90;;;;;;5011321;28;20913;-81
2022/11/24 10:02:58;;;;;;;12.60;11.80;;;10.10;99.90;;;;;;5011305;28;21138;-80
2022/11/24 10:05:28;;;;;;;12.00;11.50;;;10.30;99.90;;;;;;5011381;28;20454;-81
2022/11/24 10:08:07;;;;;;;11.10;10.70;;;10.30;99.90;;;;;;5011350;28;20450;-81
2022/11/24 10:10:44;;;;;;;11.33;10.93;;;10.30;99.90;;;;;;5010667;28;20452;-82
2022/11/24 10:13:26;;;;;;;11.90;11.50;;;10.30;99.90;;;;;;5010037;28;20456;-81
2022/11/24 10:16:02;;;;;;;12.17;11.67;;;10.40;99.90;;;;;;5010076;28;20470;-82
2022/11/24 10:18:49;;;;;;;12.13;11.63;;;10.40;99.90;;;;;;5010541;28;20963;-82
2022/11/24 10:21:40;;;;;;;11.10;10.67;;;10.50;99.90;;;;;;5010665;28;20835;-84
2022/11/24 10:24:27;;;;;;;12.10;11.30;;;10.90;99.90;;;;;;5009265;28;20446;-83
2022/11/24 10:27:01;;;;;;;11.03;10.50;;;12.00;99.90;;;;;;5009697;28;20452;-82
2022/11/24 10:29:33;;;;;;;11.33;10.90;;;13.10;99.90;;;;;;5010708;28;20457;-84
2022/11/24 10:32:03;;;;;;;10.60;10.30;;;13.00;99.90;;;;;;5010451;28;20815;-82
2022/11/24 10:34:35;;;;;;;11.90;11.00;;;13.10;99.90;;;;;;5010671;28;21005;-82
2022/11/24 10:37:13;;;;;;;12.07;11.47;;;13.10;99.90;;;;;;5011023;28;20442;-82
2022/11/24 10:39:50;;;;;;;11.23;10.60;;;12.50;99.90;;;;;;5010497;28;20485;-83
2022/11/24 10:42:20;;;;;;;12.97;12.07;;;12.00;99.90;;;;;;5008871;28;20446;-83
2022/11/24 10:44:58;;;;;;;12.43;11.93;;;11.60;99.90;;;;;;5010362;28;20858;-82
2022/11/24 10:47:24;;;;;;;13.00;12.30;;;11.40;99.90;;;;;;5010216;28;20551;-81
2022/11/24 10:49:58;;;;;;;11.73;11.23;;;11.40;99.90;;;;;;5010267;28;20449;-80
2022/11/24 10:52:26;;;;;;;11.87;11.47;;;11.30;99.90;;;;;;5009721;28;20545;-81
2022/11/24 10:54:58;;;;;;;11.80;11.40;;;11.30;99.90;;;;;;5010070;28;20450;-79
2022/11/24 10:57:30;;;;;;;11.93;11.43;;;11.50;99.90;;;;;;5010285;28;20950;-81
2022/11/24 10:59:57;;;;;;;11.13;10.73;;;11.80;99.90;;;;;;5010056;28;20484;-81
2022/11/24 11:02:29;;;;;;;11.67;11.00;;;12.90;99.90;;;;;;5010070;28;20457;-79
2022/11/24 11:04:58;;;;;;;11.63;11.10;;;13.70;99.90;;;;;;5010155;28;20454;-79
2022/11/24 11:07:26;;;;;;;11.80;11.20;;;13.80;99.90;;;;;;5009986;28;20454;-78
2022/11/24 11:10:19;;;;;;;11.47;10.90;;;13.20;99.90;;;;;;5009351;28;20456;-78
2022/11/24 11:12:46;;;;;;;12.70;12.20;;;12.60;99.90;;;;;;5010317;28;20457;-80
2022/11/24 11:15:24;;;;;;;14.27;13.67;;;12.20;99.90;;;;;;5009836;28;20482;-80
2022/11/24 11:17:56;;;;;;;16.17;15.40;;;12.00;99.90;;;;;;5009839;28;20939;-82
2022/11/24 11:20:28;;;;;;;15.33;14.80;;;11.80;99.90;;;;;;5009451;28;20529;-82
2022/11/24 11:22:57;;;;;;;15.37;14.73;;;11.70;99.90;;;;;;5009894;28;20461;-80
2022/11/24 11:25:29;;;;;;;14.10;13.60;;;11.50;99.90;;;;;;5008848;28;20536;-80
2022/11/24 11:28:23;;;;;;;13.47;12.87;;;11.60;99.90;;;;;;5009290;28;20452;-80
2022/11/24 11:30:59;;;;;;;12.87;12.30;;;12.10;99.90;;;;;;5009740;28;20609;-80
2022/11/24 11:33:28;;;;;;;12.40;11.90;;;14.30;99.90;;;;;;5009003;28;20457;-78
2022/11/24 11:35:57;;;;;;;11.40;11.00;;;15.90;99.90;;;;;;4991251;28;20454;-77
2022/11/24 11:38:25;;;;;;;11.73;11.33;;;15.80;99.90;;;;;;4989662;28;20959;-79
2022/11/24 11:40:53;;;;;;;12.07;11.47;;;15.90;99.90;;;;;;4989635;28;20482;-77
2022/11/24 11:43:25;;;;;;;11.70;11.07;;;15.10;99.90;;;;;;4990173;28;20945;-77
2022/11/24 11:46:00;;;;;;;12.17;11.67;;;15.20;99.90;;;;;;4989687;28;20482;-76
2022/11/24 11:48:31;;;;;;;11.13;10.73;;;15.50;99.90;;;;;;4989240;28;20512;-79
2022/11/24 11:51:05;;;;;;;11.20;10.80;;;15.20;99.90;;;;;;4989364;28;20450;-80
2022/11/24 11:53:43;;;;;;;11.10;10.70;;;14.70;99.90;;;;;;4989502;28;20959;-80
2022/11/24 11:56:21;;;;;;;11.50;11.10;;;14.40;99.90;;;;;;4989418;28;20478;-78
2022/11/24 11:59:18;;;;;;;10.50;9.93;;;13.50;99.90;;;;;;4989105;28;20447;-80
2022/11/24 12:02:08;;;;;;;11.70;11.30;;;12.70;99.90;;;;;;4989439;28;20446;-80
2022/11/24 12:04:47;;;;;;;11.50;11.10;;;12.70;99.90;;;;;;4989695;28;20473;-80
2022/11/24 12:07:48;;;;;;;12.20;11.70;;;12.70;99.90;;;;;;4989484;28;20454;-80
2022/11/24 12:10:27;;;;;;;11.97;11.30;;;12.40;99.90;;;;;;4937513;28;20449;-81
2022/11/24 12:13:11;;;;;;;11.43;10.90;;;12.30;99.90;;;;;;4989539;28;20439;-81
2022/11/24 12:15:43;;;;;;;12.10;11.70;;;12.20;99.90;;;;;;4989871;28;20447;-80
2022/11/24 12:18:23;;;;;;;12.70;12.10;;;12.20;99.90;;;;;;4989565;28;20804;-81
2022/11/24 12:21:01;;;;;;;12.07;11.57;;;12.30;99.90;;;;;;4989482;28;20495;-78
2022/11/24 12:23:41;;;;;;;11.20;10.57;;;12.80;99.90;;;;;;4989675;28;20451;-79
2022/11/24 12:26:18;;;;;;;11.27;10.77;;;13.50;99.90;;;;;;4989242;28;20453;-79
2022/11/24 12:28:54;;;;;;;13.40;12.60;;;14.70;99.90;;;;;;4989828;28;20501;-79
2022/11/24 12:31:28;;;;;;;11.70;11.10;;;15.90;99.90;;;;;;4989552;28;20944;-81
2022/11/24 12:34:08;;;;;;;12.50;11.90;;;17.00;99.40;;;;;;4989204;28;20450;-79
2022/11/24 12:36:47;;;;;;;11.13;10.73;;;17.50;97.00;;;;;;4991051;28;20451;-78
2022/11/24 12:39:25;;;;;;;12.30;11.53;;;17.40;97.20;;;;;;4995088;28;20461;-77
2022/11/24 12:42:03;;;;;;;11.47;10.77;;;16.90;97.50;;;;;;4994607;28;20457;-76
2022/11/24 12:44:57;;;;;;;11.73;10.60;;;16.40;97.40;;;;;;4993686;28;20442;-76
2022/11/24 12:47:33;;;;;;;11.40;10.90;;;15.70;99.70;;;;;;4992759;28;20442;-76
2022/11/24 12:50:08;;;;;;;13.03;12.13;;;15.50;99.90;;;;;;4992946;28;20461;-77
2022/11/24 12:52:37;;;;;;;12.20;11.40;;;15.40;99.90;;;;;;4993599;28;20648;-79
2022/11/24 12:55:15;;;;;;;11.83;11.13;;;15.10;99.90;;;;;;4993142;28;20931;-76
2022/11/24 12:57:47;;;;;;;12.07;11.47;;;14.70;99.90;;;;;;4992722;28;20844;-77
2022/11/24 13:00:20;;;;;;;10.90;10.17;;;14.80;99.90;;;;;;4992757;28;20490;-77
2022/11/24 13:03:15;;;;;;;11.00;10.30;;;14.60;99.90;;;;;;4992430;28;20461;-78
2022/11/24 13:05:52;;;;;;;11.77;11.07;;;14.40;99.90;;;;;;4992733;28;20517;-78
2022/11/24 13:08:19;;;;;;;12.50;11.57;;;14.50;99.90;;;;;;4992879;28;20454;-77
2022/11/24 13:10:47;;;;;;;10.70;10.20;;;14.60;99.90;;;;;;4992499;28;20449;-77
2022/11/24 13:13:15;;;;;;;11.87;10.90;;;15.00;99.90;;;;;;4992807;28;20455;-77
2022/11/24 13:16:12;;;;;;;11.97;11.30;;;14.80;99.60;;;;;;4992526;28;20451;-77
2022/11/24 13:18:44;;;;;;;12.07;11.30;;;14.60;99.00;;;;;;4982578;28;20470;-77
2022/11/24 13:21:46;;;;;;;11.43;10.73;;;14.60;99.90;;;;;;4992034;28;20490;-80
2022/11/24 13:24:24;;;;;;;11.80;11.00;;;14.20;99.40;;;;;;4992752;28;20446;-80
2022/11/24 13:26:54;;;;;;;12.03;11.23;;;13.80;99.70;;;;;;4992349;28;20468;-80
2022/11/24 13:29:33;;;;;;;11.10;10.43;;;13.50;99.90;;;;;;4992261;28;20547;-80
2022/11/24 13:32:49;;;;;;;11.43;10.53;;;13.50;99.90;;;;;;4991824;28;20446;-81
2022/11/24 13:35:16;;;;;;;12.60;11.30;;;13.40;99.90;;;;;;4992221;28;20928;-79
2022/11/24 13:37:50;;;;;;;12.70;11.80;;;13.50;99.90;;;;;;4992276;28;20450;-79
2022/11/24 13:40:37;;;;;;;12.23;11.53;;;13.50;99.90;;;;;;4992018;28;20478;-79
2022/11/24 13:43:23;;;;;;;12.70;11.70;;;13.50;99.90;;;;;;4991872;28;20665;-79
2022/11/24 13:45:52;;;;;;;11.67;10.97;;;13.40;99.90;;;;;;4991706;28;20447;-79
2022/11/24 13:48:52;;;;;;;11.93;10.80;;;13.30;99.90;;;;;;4991169;28;20537;-77
2022/11/24 13:51:24;;;;;;;12.03;11.13;;;13.30;99.90;;;;;;4991904;28;20465;-77
2022/11/24 13:53:53;;;;;;;11.77;10.97;;;13.30;99.90;;;;;;4992194;28;20868;-77
2022/11/24 13:56:26;;;;;;;12.67;12.07;;;13.40;99.90;;;;;;4992160;28;20958;-79
2022/11/24 13:58:57;;;;;;;11.93;10.83;;;13.40;99.90;;;;;;4991623;28;20503;-79
2022/11/24 14:01:25;;;;;;;11.60;10.80;;;13.30;99.90;;;;;;4990988;28;20505;-79
2022/11/24 14:04:03;;;;;;;12.87;11.60;;;13.20;99.90;;;;;;4991399;28;20939;-79
2022/11/24 14:06:32;;;;;;;11.80;10.80;;;13.10;99.90;;;;;;4991944;28;20492;-78
2022/11/24 14:09:01;;;;;;;11.80;11.07;;;13.00;99.90;;;;;;4991352;28;20447;-79
2022/11/24 14:11:29;;;;;;;11.93;11.20;;;12.90;99.90;;;;;;4991566;28;21033;-79
2022/11/24 14:13:57;;;;;;;12.77;11.37;;;12.80;99.90;;;;;;4991160;28;20541;-79
2022/11/24 14:16:24;;;;;;;11.77;10.77;;;12.60;99.90;;;;;;4991323;28;20455;-79
2022/11/24 14:18:52;;;;;;;12.23;11.07;;;12.40;99.90;;;;;;4990830;28;20467;-80
2022/11/24 14:21:25;;;;;;;12.10;11.17;;;12.30;99.90;;;;;;4991602;28;20503;-79
2022/11/24 14:23:54;;;;;;;11.90;11.20;;;12.20;99.90;;;;;;4991370;28;20455;-78
2022/11/24 14:26:26;;;;;;;11.57;10.90;;;12.10;99.90;;;;;;5001530;28;20446;-79
2022/11/24 14:28:54;;;;;;;11.83;11.13;;;12.10;99.90;;;;;;5007561;28;20461;-79
2022/11/24 14:31:24;;;;;;;14.10;13.10;;;12.10;99.90;;;;;;5010362;28;20446;-79
2022/11/24 14:34:06;;;;;;;12.47;11.37;;;12.00;99.90;;;;;;5009705;28;20565;-79
2022/11/24 14:36:34;;;;;;;11.43;10.83;;;12.00;99.90;;;;;;5007426;28;20441;-79
2022/11/24 14:39:00;;;;;;;12.07;11.47;;;11.80;99.90;;;;;;5009622;28;20461;-79
2022/11/24 14:41:27;;;;;;;11.93;11.03;;;11.80;99.90;;;;;;5005257;28;20489;-80
2022/11/24 14:44:15;;;;;;;11.33;10.53;;;11.80;99.90;;;;;;5008250;28;20446;-80
2022/11/24 14:46:43;;;;;;;12.80;11.73;;;11.70;99.90;;;;;;5010169;28;20783;-80
2022/11/24 14:49:10;;;;;;;13.30;12.43;;;11.50;99.90;;;;;;5009860;28;20457;-81
2022/11/24 14:51:42;;;;;;;12.70;11.97;;;11.50;99.90;;;;;;5010835;28;20442;-80
2022/11/24 14:54:17;;;;;;;11.40;10.90;;;11.50;99.90;;;;;;5010324;28;20449;-81
2022/11/24 14:56:58;;;;;;;12.77;11.97;;;11.40;99.90;;;;;;5010149;28;20450;-82
2022/11/24 14:59:27;;;;;;;13.90;12.60;;;11.60;99.90;;;;;;5009987;28;20454;-81
2022/11/24 15:01:56;;;;;;;12.83;11.67;;;11.80;99.90;;;;;;5009929;28;20477;-81
2022/11/24 15:04:24;;;;;;;12.97;11.90;;;11.90;99.90;;;;;;5010085;28;20445;-79
2022/11/24 15:07:12;;;;;;;12.97;12.03;;;12.00;99.90;;;;;;5010093;28;20481;-80
2022/11/24 15:09:49;;;;;;;13.43;11.97;;;12.10;99.90;;;;;;5009839;28;20449;-80
2022/11/24 15:12:27;;;;;;;13.10;12.27;;;12.10;99.90;;;;;;5009949;28;20453;-82
2022/11/24 15:14:56;;;;;;;15.40;13.30;;;12.20;99.90;;;;;;5009702;28;20504;-83
2022/11/24 15:17:27;;;;;;;13.80;12.77;;;12.10;99.90;;;;;;5009032;28;20452;-81
2022/11/24 15:19:57;;;;;;;13.87;12.83;;;12.10;99.90;;;;;;5009429;28;20853;-83
2022/11/24 15:22:43;;;;;;;14.87;13.73;;;12.20;99.90;;;;;;5009593;28;20492;-85
2022/11/24 15:25:31;;;;;;;15.10;14.10;;;12.00;99.90;;;;;;5009966;28;20450;-82
2022/11/24 15:27:58;;;;;;;14.10;13.10;;;12.00;99.90;;;;;;5009605;28;20445;-81
2022/11/24 15:30:26;;;;;;;14.97;13.40;;;11.90;99.90;;;;;;5009930;28;20456;-83
2022/11/24 15:32:56;;;;;;;13.40;12.60;;;11.50;99.90;;;;;;5009879;28;20446;-80
2022/11/24 15:35:24;;;;;;;13.90;13.20;;;11.50;99.90;;;;;;5009830;28;20441;-80
2022/11/24 15:37:51;;;;;;;13.83;12.47;;;11.50;99.90;;;;;;5009654;28;20540;-80
2022/11/24 15:40:19;;;;;;;12.17;11.23;;;11.50;99.90;;;;;;5009624;28;20456;-79
2022/11/24 15:42:51;;;;;;;12.90;12.20;;;11.30;99.90;;;;;;5009512;28;20448;-80
2022/11/24 15:45:18;;;;;;;13.50;12.40;;;11.20;99.90;;;;;;5006497;28;21193;-80
2022/11/24 15:47:45;;;;;;;12.73;12.13;;;11.20;99.90;;;;;;5003420;28;20469;-79
2022/11/24 15:50:14;;;;;;;14.23;13.30;;;11.00;99.90;;;;;;5008704;28;20856;-80
2022/11/24 15:52:42;;;;;;;14.63;13.30;;;10.90;99.90;;;;;;5009151;28;20591;-80
2022/11/24 15:55:16;;;;;;;12.57;11.80;;;10.70;99.90;;;;;;5008659;28;20445;-80
2022/11/24 15:57:42;;;;;;;11.93;11.20;;;10.60;99.90;;;;;;5007021;28;20441;-80
2022/11/24 16:00:13;;;;;;;12.10;11.50;;;10.50;99.90;;;;;;5008425;28;20928;-80
2022/11/24 16:02:40;;;;;;;12.20;11.40;;;10.30;99.90;;;;;;5005412;28;20481;-79
2022/11/24 16:05:08;;;;;;;12.30;11.50;;;10.10;99.90;;;;;;5008403;28;20452;-79
2022/11/24 16:07:37;;;;;;;12.73;12.03;;;9.90;99.90;;;;;;5009048;28;20464;-80
2022/11/24 16:10:04;;;;;;;13.20;12.47;;;9.90;99.90;;;;;;5009473;28;20508;-80
2022/11/24 16:12:31;;;;;;;13.90;12.53;;;9.70;99.90;;;;;;5008435;28;20970;-80
2022/11/24 16:14:58;;;;;;;14.10;12.83;;;9.70;99.90;;;;;;5008139;28;20457;-80
2022/11/24 16:17:24;;;;;;;13.20;12.20;;;9.60;99.90;;;;;;5008245;28;20445;-79
2022/11/24 16:19:51;;;;;;;13.90;12.83;;;9.60;99.90;;;;;;5004854;28;20485;-79
2022/11/24 16:22:18;;;;;;;15.60;14.33;;;9.60;99.90;;;;;;5008638;28;20481;-80
2022/11/24 16:24:46;;;;;;;16.47;15.07;;;9.50;99.90;;;;;;5008135;28;20469;-79
2022/11/24 16:27:13;;;;;;;17.80;16.23;;;9.40;99.90;;;;;;5005641;28;20437;-78
2022/11/24 16:29:39;;;;;;;16.27;14.77;;;9.20;99.90;;;;;;5008215;28;20434;-78
2022/11/24 16:32:06;;;;;;;15.53;14.33;;;9.00;99.90;;;;;;5008422;28;20438;-79
2022/11/24 16:34:33;;;;;;;15.93;14.73;;;8.90;99.90;;;;;;5008703;28;20453;-76
2022/11/24 16:37:00;;;;;;;17.17;15.63;;;8.70;99.90;;;;;;5008627;28;20459;-78
2022/11/24 16:39:26;;;;;;;17.87;15.13;;;8.60;99.90;;;;;;5008680;28;20449;-77
2022/11/24 16:41:54;;;;;;;16.83;15.40;;;8.50;99.90;;;;;;5008574;28;20806;-77
2022/11/24 16:44:21;;;;;;;16.20;14.83;;;8.40;99.90;;;;;;5008650;28;20450;-79
2022/11/24 16:46:48;;;;;;;15.20;13.67;;;8.40;99.90;;;;;;5007444;28;20917;-78
2022/11/24 16:49:15;;;;;;;14.50;13.20;;;8.30;99.90;;;;;;5002014;28;20481;-78
2022/11/24 16:51:42;;;;;;;14.50;13.50;;;8.40;99.90;;;;;;5008590;28;20442;-78
2022/11/24 16:54:10;;;;;;;15.57;14.53;;;8.40;99.90;;;;;;5008779;28;20450;-77
2022/11/24 16:56:37;;;;;;;15.00;13.80;;;8.40;99.90;;;;;;5008872;28;20513;-78
2022/11/24 16:59:05;;;;;;;16.00;14.83;;;8.20;99.90;;;;;;5008835;28;20453;-79
2022/11/24 17:01:32;;;;;;;15.07;14.13;;;8.20;99.90;;;;;;5008626;28;20592;-78
2022/11/24 17:03:59;;;;;;;15.30;13.93;;;8.00;99.90;;;;;;5008488;28;20442;-78
2022/11/24 17:06:26;;;;;;;16.37;14.90;;;7.90;99.90;;;;;;5008503;28;20601;-78
2022/11/24 17:08:55;;;;;;;16.90;15.50;;;7.80;99.90;;;;;;5008534;28;20460;-78
2022/11/24 17:11:23;;;;;;;17.07;15.60;;;7.80;99.90;;;;;;5008783;28;20450;-78
2022/11/24 17:13:51;;;;;;;15.80;14.73;;;7.70;99.90;;;;;;5008800;28;20446;-77
2022/11/24 17:16:21;;;;;;;16.37;15.07;;;7.70;99.90;;;;;;5008479;28;20465;-77
2022/11/24 17:18:48;;;;;;;18.10;16.40;;;7.70;99.90;;;;;;5008053;28;20557;-77
2022/11/24 17:21:17;;;;;;;19.87;17.90;;;7.70;99.90;;;;;;5008101;28;20521;-78
2022/11/24 17:23:44;;;;;;;15.97;14.93;;;7.60;99.90;;;;;;5010238;28;20461;-78
2022/11/24 17:26:13;;;;;;;22.40;18.13;;;7.60;99.90;;;;;;5011744;28;20460;-78
2022/11/24 17:28:40;;;;;;;19.10;17.27;;;7.60;99.90;;;;;;5011974;28;20454;-78
2022/11/24 17:31:07;;;;;;;19.10;17.17;;;7.50;99.90;;;;;;5011871;28;20442;-78
2022/11/24 17:33:36;;;;;;;19.93;18.27;;;7.30;99.90;;;;;;5011831;28;20454;-77
2022/11/24 17:36:03;;;;;;;18.60;17.00;;;7.20;99.90;;;;;;5011776;28;20445;-77
2022/11/24 17:38:30;;;;;;;20.77;19.00;;;7.20;99.90;;;;;;5011772;28;20824;-77
2022/11/24 17:40:57;;;;;;;19.83;18.17;;;7.20;99.90;;;;;;5011401;28;20500;-77
2022/11/24 17:43:26;;;;;;;21.93;20.03;;;7.10;99.90;;;;;;5011896;28;20452;-77
2022/11/24 17:45:53;;;;;;;21.97;19.30;;;7.10;99.90;;;;;;5011202;28;20515;-79
2022/11/24 17:48:20;;;;;;;19.90;18.13;;;7.10;99.90;;;;;;5011308;28;20453;-76
2022/11/24 17:50:48;;;;;;;21.77;19.77;;;7.00;99.90;;;;;;5011199;28;20476;-76
2022/11/24 17:53:15;;;;;;;19.93;18.50;;;6.90;99.90;;;;;;5011635;28;20446;-77
2022/11/24 17:55:42;;;;;;;20.27;18.53;;;6.90;99.90;;;;;;5011334;28;20450;-77
2022/11/24 17:58:09;;;;;;;23.33;19.90;;;6.90;99.90;;;;;;5010688;28;20978;-77
2022/11/24 18:00:35;;;;;;;27.67;20.37;;;6.90;99.90;;;;;;5010742;28;20962;-77
2022/11/24 18:03:04;;;;;;;21.40;19.50;;;6.80;99.90;;;;;;5010766;28;20484;-76
2022/11/24 18:05:30;;;;;;;22.10;20.30;;;6.80;99.90;;;;;;5005492;28;20529;-77
2022/11/24 18:07:59;;;;;;;21.10;19.13;;;6.80;99.90;;;;;;5009673;28;20446;-79
2022/11/24 18:10:26;;;;;;;22.07;20.13;;;6.70;99.90;;;;;;5010147;28;20868;-76
2022/11/24 18:12:53;;;;;;;20.87;18.97;;;6.70;99.90;;;;;;5006774;28;20808;-76
2022/11/24 18:15:20;;;;;;;20.33;18.23;;;6.70;99.90;;;;;;5009376;28;20450;-77
2022/11/24 18:17:47;;;;;;;22.27;19.83;;;6.70;99.90;;;;;;5008930;28;20528;-77
2022/11/24 18:20:14;;;;;;;23.03;20.23;;;6.70;99.90;;;;;;5009955;28;20477;-76
2022/11/24 18:22:41;;;;;;;21.17;19.53;;;6.60;99.90;;;;;;5010466;28;20685;-77
2022/11/24 18:25:09;;;;;;;19.23;17.33;;;6.60;99.90;;;;;;5010975;28;20450;-78
2022/11/24 18:27:36;;;;;;;21.83;19.17;;;6.60;99.90;;;;;;5010969;28;20460;-80